Alabaster, Alabama
Current Conditions -  °F | °C
As of 3:53 AM on Monday 22 Dec 2014 (Local Time) from KEET Reporting Station
Overcast Overcast  
Wind Chill: 50°   Ceiling: 400
Heat Index: 50°   Visibility: 8mi
Dew Point: 48°   Wind: 5mph
Humidity: 93%   Direction: 130°SE
Pressure: 29.96"   Gusts: NA
Location:  33.25°N, 86.82°W
Report Text: KEET 220953Z AUTO 13004KT 8SM OVC004 10/09 A2996 RMK AO2 SLP145 T01000089
Loading
Personal Weather Stations






























Interactive Weather Map New forecast layout! Learn more

10-Day Weather Forecast

Advertisements
Track Severe Weather on mobile